createdAt,value
2022-08-04T00:02:11.259Z,14.20
2022-08-04T00:07:44.775Z,14.00
2022-08-04T00:12:51.264Z,11.20
2022-08-04T00:18:04.978Z,13.60
2022-08-04T00:23:09.759Z,13.80
2022-08-04T00:28:13.973Z,13.60
2022-08-04T00:33:21.072Z,13.50
2022-08-04T00:38:25.850Z,13.80
2022-08-04T00:44:04.403Z,13.30
2022-08-04T00:49:28.342Z,13.30
2022-08-04T00:54:38.512Z,12.90
2022-08-04T01:00:02.959Z,13.90
2022-08-04T01:05:37.970Z,12.60
2022-08-04T01:10:59.151Z,13.90
2022-08-04T01:16:08.294Z,12.60
2022-08-04T01:21:29.507Z,11.00
2022-08-04T01:26:42.512Z,11.10
2022-08-04T01:31:58.409Z,13.50
2022-08-04T01:37:56.075Z,11.60
2022-08-04T01:43:02.221Z,12.00
2022-08-04T01:48:07.947Z,15.00
2022-08-04T01:53:11.542Z,16.20
2022-08-04T01:58:18.297Z,16.60
2022-08-04T02:03:21.316Z,12.50
2022-08-04T02:14:42.986Z,15.40
2022-08-04T02:19:48.729Z,12.20
2022-08-04T02:25:05.231Z,12.10
2022-08-04T02:30:09.161Z,11.50
2022-08-04T02:35:20.915Z,10.80
2022-08-04T02:40:26.857Z,13.40
2022-08-04T02:45:32.259Z,13.20
2022-08-04T02:50:37.516Z,12.90
2022-08-04T02:55:50.448Z,12.10
2022-08-04T03:00:54.515Z,12.00
2022-08-04T03:06:41.784Z,13.60
2022-08-04T03:12:23.041Z,13.70
2022-08-04T03:17:53.814Z,13.20
2022-08-04T03:23:50.828Z,11.90
2022-08-04T03:29:36.418Z,10.80
2022-08-04T03:35:47.514Z,14.80
2022-08-04T03:41:50.857Z,13.80
2022-08-04T03:46:46.774Z,12.40
2022-08-04T03:52:27.416Z,13.80
2022-08-04T03:58:30.637Z,12.50
2022-08-04T04:04:09.574Z,13.00
2022-08-04T04:09:58.001Z,16.10
2022-08-04T04:15:31.504Z,11.70
2022-08-04T04:21:14.260Z,13.50
2022-08-04T04:26:35.038Z,13.00
2022-08-04T04:32:03.091Z,13.40
2022-08-04T04:37:51.250Z,13.00
2022-08-04T04:43:11.947Z,14.40
2022-08-04T04:48:48.758Z,16.60
2022-08-04T04:54:00.594Z,14.60
2022-08-04T04:59:10.246Z,13.40
2022-08-04T05:04:35.035Z,15.50
2022-08-04T05:10:34.687Z,14.10
2022-08-04T05:15:43.517Z,15.70
2022-08-04T05:20:57.456Z,14.80
2022-08-04T05:26:09.023Z,17.60
2022-08-04T05:31:19.177Z,14.80
2022-08-04T05:36:41.091Z,21.20
2022-08-04T05:46:59.335Z,14.00
2022-08-04T05:52:04.827Z,15.00
2022-08-04T05:57:10.028Z,14.60
2022-08-04T06:02:18.011Z,17.30
2022-08-04T06:07:21.719Z,15.20
2022-08-04T06:12:36.441Z,12.30
2022-08-04T06:18:33.814Z,12.30
2022-08-04T06:28:20.132Z,12.00
2022-08-04T06:33:54.252Z,13.20
2022-08-04T06:39:01.417Z,10.10
2022-08-04T06:44:10.180Z,11.70
2022-08-04T06:49:14.157Z,11.00
2022-08-04T06:54:17.240Z,13.70
2022-08-04T06:59:24.445Z,10.80
2022-08-04T07:04:28.379Z,9.00
2022-08-04T07:09:32.004Z,8.30
2022-08-04T07:14:36.679Z,7.80
2022-08-04T07:19:39.709Z,9.70
2022-08-04T07:24:43.313Z,9.20
2022-08-04T07:29:48.418Z,8.40
2022-08-04T07:34:52.748Z,7.40
2022-08-04T07:39:56.420Z,9.90
2022-08-04T07:44:59.842Z,7.10
2022-08-04T07:50:04.571Z,7.80
2022-08-04T07:55:08.482Z,10.40
2022-08-04T08:00:15.199Z,8.60
2022-08-04T08:05:20.629Z,7.80
2022-08-04T08:10:25.563Z,8.40
2022-08-04T08:15:29.097Z,8.70
2022-08-04T08:20:35.593Z,7.30
2022-08-04T08:25:38.993Z,8.40
2022-08-04T08:30:41.998Z,7.20
2022-08-04T08:36:03.743Z,6.50
2022-08-04T08:41:18.971Z,7.30
2022-08-04T08:46:49.889Z,6.50
2022-08-04T08:52:05.112Z,7.30
2022-08-04T08:57:59.550Z,5.50
2022-08-04T09:03:34.412Z,7.30
2022-08-04T09:08:46.212Z,6.40
2022-08-04T09:13:57.339Z,6.20
2022-08-04T09:19:38.766Z,6.70
2022-08-04T09:25:09.079Z,6.30
2022-08-04T09:30:17.705Z,6.20
2022-08-04T09:35:49.173Z,7.90
2022-08-04T09:41:40.107Z,6.80
2022-08-04T09:47:00.194Z,6.80
2022-08-04T09:52:31.280Z,7.30
2022-08-04T09:57:53.645Z,7.80
2022-08-04T10:03:01.215Z,8.00
2022-08-04T10:08:18.795Z,8.60
2022-08-04T10:14:27.065Z,7.30
2022-08-04T10:19:37.710Z,7.60
2022-08-04T10:25:37.444Z,8.40
2022-08-04T10:31:01.651Z,6.50
2022-08-04T10:36:13.441Z,8.90
2022-08-04T10:41:42.646Z,7.80
2022-08-04T10:46:55.956Z,8.10
2022-08-04T10:52:17.077Z,6.80
2022-08-04T10:57:33.251Z,7.50
2022-08-04T11:02:45.191Z,7.10
2022-08-04T11:07:54.090Z,7.90
2022-08-04T11:13:29.819Z,8.00
2022-08-04T11:19:09.062Z,6.70
2022-08-04T11:24:34.091Z,7.00
2022-08-04T11:30:07.489Z,7.00
2022-08-04T11:35:26.595Z,7.70
2022-08-04T11:41:02.865Z,7.20
2022-08-04T11:46:18.624Z,6.80
2022-08-04T11:51:23.590Z,8.30
2022-08-04T11:56:37.194Z,9.00
2022-08-04T12:01:44.011Z,6.90
2022-08-04T12:13:21.511Z,6.90
2022-08-04T12:18:43.359Z,7.10
2022-08-04T12:23:49.838Z,8.00
2022-08-04T12:29:11.504Z,11.30
2022-08-04T12:34:31.116Z,9.90
2022-08-04T12:40:21.313Z,8.00
2022-08-04T12:45:09.274Z,7.90
2022-08-04T12:50:16.870Z,7.50
2022-08-04T12:55:24.364Z,8.00
2022-08-04T13:00:40.015Z,6.10
2022-08-04T13:05:45.819Z,6.10
2022-08-04T13:10:53.924Z,7.00
2022-08-04T13:15:59.841Z,8.80
2022-08-04T13:22:02.312Z,6.10
2022-08-04T13:27:16.422Z,6.60
2022-08-04T13:32:23.875Z,7.60
2022-08-04T13:37:37.328Z,16.20
2022-08-04T13:42:46.706Z,88.00
2022-08-04T13:47:58.434Z,12.90
2022-08-04T13:53:21.998Z,23.90
2022-08-04T13:58:26.725Z,14.00
2022-08-04T14:03:53.367Z,225.60
2022-08-04T14:09:19.957Z,121.30
2022-08-04T14:14:28.479Z,54.40
2022-08-04T14:19:46.669Z,71.80
2022-08-04T14:25:04.501Z,50.10
2022-08-04T14:30:35.480Z,22.40
2022-08-04T14:35:50.195Z,11.20
2022-08-04T14:41:00.076Z,10.00
2022-08-04T14:46:06.196Z,20.50
2022-08-04T14:51:17.007Z,66.60
2022-08-04T14:56:46.917Z,36.80
2022-08-04T15:02:00.351Z,7.70
2022-08-04T15:07:05.494Z,5.50
2022-08-04T15:12:10.642Z,10.80
2022-08-04T15:17:29.362Z,23.00
2022-08-04T15:22:33.864Z,9.30
2022-08-04T15:27:40.733Z,7.50
2022-08-04T15:32:52.278Z,6.00
2022-08-04T15:37:58.824Z,7.60
2022-08-04T15:43:16.505Z,6.40
2022-08-04T15:48:20.233Z,5.10
2022-08-04T15:53:23.749Z,6.70
2022-08-04T15:58:55.290Z,4.80
2022-08-04T16:04:01.429Z,9.20
2022-08-04T16:09:05.565Z,5.50
2022-08-04T16:14:10.982Z,10.30
2022-08-04T16:20:01.994Z,10.00
2022-08-04T16:25:07.319Z,11.80
2022-08-04T16:30:15.106Z,10.00
2022-08-04T16:35:28.678Z,10.20
2022-08-04T16:40:39.058Z,14.10
2022-08-04T16:46:04.351Z,7.30
2022-08-04T16:51:10.019Z,6.70
2022-08-04T16:56:17.571Z,8.10
2022-08-04T17:01:33.034Z,7.10
2022-08-04T17:06:44.722Z,13.80
2022-08-04T17:11:48.740Z,11.70
2022-08-04T17:16:53.359Z,11.00
2022-08-04T17:22:07.449Z,8.50
2022-08-04T17:28:20.169Z,14.30
2022-08-04T17:32:36.594Z,10.20
2022-08-04T17:37:53.236Z,14.40
2022-08-04T17:44:03.180Z,8.00
2022-08-04T17:48:30.899Z,8.20
2022-08-04T17:54:02.951Z,11.60
2022-08-04T17:59:55.664Z,10.50
2022-08-04T18:05:07.661Z,10.90
2022-08-04T18:10:33.095Z,9.10
2022-08-04T18:15:40.771Z,15.90
2022-08-04T18:20:50.343Z,11.60
2022-08-04T18:25:53.533Z,11.60
2022-08-04T18:30:56.651Z,13.80
2022-08-04T18:36:37.091Z,12.10
2022-08-04T18:41:23.751Z,11.60
2022-08-04T18:46:27.264Z,11.90
2022-08-04T18:51:30.762Z,21.00
2022-08-04T18:56:37.475Z,220.30
2022-08-04T19:02:12.818Z,49.90
2022-08-04T19:07:24.541Z,392.00
2022-08-04T19:12:29.348Z,509.00
2022-08-04T19:17:53.219Z,618.90
2022-08-04T19:24:11.301Z,474.50
2022-08-04T19:28:21.705Z,258.50
2022-08-04T19:33:25.501Z,196.30
2022-08-04T19:38:35.079Z,104.60
2022-08-04T19:43:43.739Z,76.00
2022-08-04T19:49:00.395Z,62.70
2022-08-04T19:54:14.894Z,55.10
2022-08-04T19:59:20.381Z,46.60
2022-08-04T20:04:25.807Z,38.20
2022-08-04T20:09:29.025Z,27.50
2022-08-04T20:14:40.794Z,25.20
2022-08-04T20:19:51.416Z,17.90
2022-08-04T20:25:10.924Z,16.20
2022-08-04T20:30:22.062Z,19.00
2022-08-04T20:35:26.687Z,26.10
2022-08-04T20:40:30.666Z,28.80
2022-08-04T20:45:56.823Z,28.10
2022-08-04T20:50:57.025Z,19.10
2022-08-04T20:56:00.534Z,17.90
2022-08-04T21:01:03.744Z,18.40
2022-08-04T21:06:08.984Z,19.00
2022-08-04T21:11:13.463Z,20.90
2022-08-04T21:16:54.989Z,20.50
2022-08-04T21:21:41.421Z,22.20
2022-08-04T21:26:54.133Z,19.90
2022-08-04T21:32:00.113Z,18.60
2022-08-04T21:37:04.238Z,17.80
2022-08-04T21:42:29.011Z,18.60
2022-08-04T21:47:46.240Z,18.30
2022-08-04T21:52:52.208Z,21.00
2022-08-04T21:57:55.730Z,16.60
2022-08-04T22:03:03.484Z,18.30
2022-08-04T22:08:06.544Z,18.60
2022-08-04T22:13:23.010Z,18.80
2022-08-04T22:18:27.876Z,19.20
2022-08-04T22:23:45.189Z,18.20
2022-08-04T22:28:51.133Z,20.80
2022-08-04T22:33:56.148Z,18.20
2022-08-04T22:39:06.915Z,16.70
2022-08-04T22:44:15.154Z,20.40
2022-08-04T22:49:19.046Z,20.60
2022-08-04T22:54:29.597Z,18.50
2022-08-04T22:59:32.931Z,19.40
2022-08-04T23:04:36.468Z,16.00
2022-08-04T23:09:49.926Z,15.80
2022-08-04T23:14:58.000Z,20.00
2022-08-04T23:20:01.302Z,17.70
2022-08-04T23:25:04.931Z,19.20
2022-08-04T23:30:08.572Z,18.70
2022-08-04T23:35:11.840Z,17.10
2022-08-04T23:40:32.339Z,17.40
2022-08-04T23:46:04.593Z,25.60
2022-08-04T23:51:14.318Z,24.40
2022-08-04T23:56:19.587Z,18.20
